Terminal Aerodrome Forecast
Issued by NWS Cleveland, OH

Home | Current Version | Previous Version | Text Only | Print | Product List | Glossary Off
Versions: 1 2 3 4 5 6 7 8 9 10 11 12 13 14 15 16 17

000
FTUS41 KCLE 301100
TAFYNG
TAF
KYNG 301120Z 3012/3112 15008KT P6SM SCT250
     FM301600 20012G18KT P6SM SCT060 BKN120
     FM310400 20009KT P6SM OVC100
     FM310900 21009KT 6SM -TSRA BKN035CB OVC100=

USA.gov is the U.S. government's official web portal to all federal, state and local government web resources and services.